Observation data for Tulia on 11/19/2019      Previous  Date  Next       Current Mesonet Observations  Soil Data  Daily Summary Page  Observations in Plain Language
KTIS 190600Z 25003KT 05/M03 A30 RMK A01 T00541028  RH  056%=      5-min Rain = 0
KTIS 190605Z 25002KT 05/M03 A30 RMK A01 T00501027  RH  058%=      5-min Rain = 0
KTIS 190610Z 26002KT 05/M02 A30 RMK A01 T00451023  RH  062%=      5-min Rain = 0
KTIS 190615Z 27000KT 04/M01 A30 RMK A01 T00431013  RH  067%=      5-min Rain = 0
KTIS 190620Z 27001KT 05/M02 A2999 RMK A01 T00511017  RH  062%=      5-min Rain = 0
KTIS 190625Z 27001KT 05/M02 A2999 RMK A01 T00511022  RH  060%=      5-min Rain = 0
KTIS 190630Z 00000KT 05/M02 A2999 RMK A01 T00451024  RH  061%=      5-min Rain = 0
KTIS 190635Z 27000KT 04/M03 A2999 RMK A01 T00371026  RH  064%=      5-min Rain = 0
KTIS 190640Z 27001KT 03/M03 A30 RMK A01 T00311027  RH  066%=      5-min Rain = 0
KTIS 190645Z 27001KT 03/M03 A30 RMK A01 T00281027  RH  067%=      5-min Rain = 0
KTIS 190650Z 27001KT 03/M03 A30 RMK A01 T00251026  RH  070%=      5-min Rain = 0
KTIS 190655Z 27002KT 02/M02 A30 RMK A01 T00241022  RH  072%=      5-min Rain = 0
KTIS 190700Z 27002KT 03/M02 A2999 RMK A01 T00261016  RH  075%=      5-min Rain = 0
KTIS 190705Z 27002KT 03/M02 A2999 RMK A01 T00311017  RH  071%=      5-min Rain = 0
KTIS 190710Z 27002KT 04/M02 A2999 RMK A01 T00371016  RH  069%=      5-min Rain = 0
KTIS 190715Z 27003KT 04/M02 A2999 RMK A01 T00411017  RH  066%=      5-min Rain = 0
KTIS 190720Z 26003KT 04/M02 A2999 RMK A01 T00401022  RH  065%=      5-min Rain = 0
KTIS 190725Z 23005KT 04/M03 A2999 RMK A01 T00371027  RH  064%=      5-min Rain = 0
KTIS 190730Z 23005KT 04/M02 A2999 RMK A01 T00351023  RH  066%=      5-min Rain = 0
KTIS 190735Z 24005KT 04/M03 A2999 RMK A01 T00361025  RH  065%=      5-min Rain = 0
KTIS 190740Z 24006KT 03/M03 A2999 RMK A01 T00331026  RH  066%=      5-min Rain = 0
KTIS 190745Z 25006KT 03/M03 A2999 RMK A01 T00311027  RH  066%=      5-min Rain = 0
KTIS 190750Z 25005KT 04/M02 A2999 RMK A01 T00361024  RH  065%=      5-min Rain = 0
KTIS 190755Z 27004KT 03/M03 A2999 RMK A01 T00271025  RH  069%=      5-min Rain = 0
KTIS 190800Z 27004KT 02/M03 A2999 RMK A01 T00231026  RH  071%=      5-min Rain = 0
KTIS 190805Z 26004KT 02/M03 A2999 RMK A01 T00191028  RH  071%=      5-min Rain = 0
KTIS 190810Z 27004KT 01/M03 A30 RMK A01 T00111030  RH  074%=      5-min Rain = 0
KTIS 190815Z 27004KT 01/M03 A30 RMK A01 T00081030  RH  076%=      5-min Rain = 0
KTIS 190820Z 27005KT 01/M03 A30 RMK A01 T00131028  RH  075%=      5-min Rain = 0
KTIS 190825Z 27005KT 02/M03 A30 RMK A01 T00151029  RH  073%=      5-min Rain = 0
KTIS 190830Z 27005KT 03/M02 A30 RMK A01 T00251024  RH  071%=      5-min Rain = 0
KTIS 190835Z 27005KT 03/M02 A30 RMK A01 T00321021  RH  069%=      5-min Rain = 0
KTIS 190840Z 27004KT 04/M02 A30 RMK A01 T00371022  RH  066%=      5-min Rain = 0
KTIS 190845Z 27004KT 04/M02 A30 RMK A01 T00361024  RH  065%=      5-min Rain = 0
KTIS 190850Z 27004KT 02/M03 A30 RMK A01 T00221030  RH  069%=      5-min Rain = 0
KTIS 190855Z 27005KT 02/M03 A30 RMK A01 T00161028  RH  073%=      5-min Rain = 0
KTIS 190900Z 28005KT 02/M03 A30 RMK A01 T00201026  RH  072%=      5-min Rain = 0
KTIS 190905Z 29005KT 02/M03 A30 RMK A01 T00181026  RH  073%=      5-min Rain = 0
KTIS 190910Z 29005KT 02/M03 A30 RMK A01 T00201028  RH  071%=      5-min Rain = 0
KTIS 190915Z 29005KT 03/M03 A30 RMK A01 T00251029  RH  068%=      5-min Rain = 0
KTIS 190920Z 29005KT 03/M03 A30 RMK A01 T00261025  RH  070%=      5-min Rain = 0
KTIS 190925Z 29005KT 02/M03 A30 RMK A01 T00231027  RH  070%=      5-min Rain = 0
KTIS 190930Z 30004KT 02/M03 A2999 RMK A01 T00231027  RH  070%=      5-min Rain = 0
KTIS 190935Z 30004KT 03/M03 A30 RMK A01 T00251029  RH  068%=      5-min Rain = 0
KTIS 190940Z 30004KT 02/M03 A30 RMK A01 T00241032  RH  067%=      5-min Rain = 0
KTIS 190945Z 29003KT 02/M03 A30 RMK A01 T00211033  RH  068%=      5-min Rain = 0
KTIS 190950Z 29003KT 02/M03 A2999 RMK A01 T00221029  RH  070%=      5-min Rain = 0
KTIS 190955Z 29004KT 03/M03 A2999 RMK A01 T00281027  RH  067%=      5-min Rain = 0
KTIS 191000Z 29004KT 03/M03 A2999 RMK A01 T00261030  RH  067%=      5-min Rain = 0
KTIS 191005Z 29003KT 02/M03 A2999 RMK A01 T00221029  RH  069%=      5-min Rain = 0
KTIS 191010Z 29003KT 03/M03 A2999 RMK A01 T00281025  RH  068%=      5-min Rain = 0
KTIS 191015Z 29001KT 03/M03 A2999 RMK A01 T00311027  RH  066%=      5-min Rain = 0
KTIS 191020Z 28002KT 03/M03 A2999 RMK A01 T00271026  RH  068%=      5-min Rain = 0
KTIS 191025Z 25002KT 02/M02 A2998 RMK A01 T00241024  RH  071%=      5-min Rain = 0
KTIS 191030Z 25002KT 02/M03 A2998 RMK A01 T00211025  RH  072%=      5-min Rain = 0
KTIS 191035Z 25002KT 02/M03 A2998 RMK A01 T00191029  RH  071%=      5-min Rain = 0
KTIS 191040Z 25004KT 02/M03 A2998 RMK A01 T00171032  RH  071%=      5-min Rain = 0
KTIS 191045Z 24005KT 01/M03 A2999 RMK A01 T00141033  RH  071%=      5-min Rain = 0
KTIS 191050Z 24004KT 01/M03 A2998 RMK A01 T00111033  RH  073%=      5-min Rain = 0
KTIS 191055Z 24002KT 02/M03 A2998 RMK A01 T00171027  RH  073%=      5-min Rain = 0
KTIS 191100Z 24003KT 02/M03 A2998 RMK A01 T00241026  RH  070%=      5-min Rain = 0
KTIS 191105Z 23003KT 02/M02 A2997 RMK A01 T00211023  RH  073%=      5-min Rain = 0
KTIS 191110Z 21003KT 03/M02 A2997 RMK A01 T00251021  RH  072%=      5-min Rain = 0
KTIS 191115Z 21004KT 03/M03 A2997 RMK A01 T00251027  RH  069%=      5-min Rain = 0
KTIS 191120Z 22004KT 02/M03 A2997 RMK A01 T00221029  RH  069%=      5-min Rain = 0
KTIS 191125Z 22004KT 02/M03 A2997 RMK A01 T00161033  RH  071%=      5-min Rain = 0
KTIS 191130Z 23005KT 01/M03 A2996 RMK A01 T00111032  RH  073%=      5-min Rain = 0
KTIS 191135Z 23005KT 02/M03 A2996 RMK A01 T00151028  RH  074%=      5-min Rain = 0
KTIS 191140Z 22005KT 02/M03 A2996 RMK A01 T00201028  RH  071%=      5-min Rain = 0
KTIS 191145Z 22005KT 02/M03 A2996 RMK A01 T00201030  RH  070%=      5-min Rain = 0
KTIS 191150Z 22008KT 03/M03 A2996 RMK A01 T00251026  RH  070%=      5-min Rain = 0
KTIS 191155Z 23008KT 04/M02 A2996 RMK A01 T00421019  RH  065%=      5-min Rain = 0
KTIS 191200Z 24007KT 04/M02 A2996 RMK A01 T00441020  RH  064%=      5-min Rain = 0
KTIS 191205Z 24007KT 04/M02 A2996 RMK A01 T00391021  RH  065%=      5-min Rain = 0
KTIS 191210Z 23007KT 04/M02 A2996 RMK A01 T00391021  RH  065%=      5-min Rain = 0
KTIS 191215Z 23007KT 04/M02 A2996 RMK A01 T00411020  RH  065%=      5-min Rain = 0
KTIS 191220Z 23007KT 04/M02 A2996 RMK A01 T00431020  RH  064%=      5-min Rain = 0
KTIS 191225Z 23006KT 04/M02 A2996 RMK A01 T00411020  RH  065%=      5-min Rain = 0
KTIS 191230Z 23006KT 04/M02 A2996 RMK A01 T00391021  RH  065%=      5-min Rain = 0
KTIS 191235Z 23006KT 04/M02 A2996 RMK A01 T00391021  RH  066%=      5-min Rain = 0
KTIS 191240Z 23005KT 04/M02 A2996 RMK A01 T00381022  RH  065%=      5-min Rain = 0
KTIS 191245Z 23005KT 04/M02 A2996 RMK A01 T00361022  RH  066%=      5-min Rain = 0
KTIS 191250Z 23006KT 04/M02 A2996 RMK A01 T00351021  RH  067%=      5-min Rain = 0
KTIS 191255Z 22005KT 04/M02 A2996 RMK A01 T00351022  RH  067%=      5-min Rain = 0
KTIS 191300Z 22006KT 03/M02 A2996 RMK A01 T00331023  RH  067%=      5-min Rain = 0
KTIS 191305Z 22006KT 03/M03 A2996 RMK A01 T00251026  RH  069%=      5-min Rain = 0
KTIS 191310Z 22006KT 02/M02 A2996 RMK A01 T00231024  RH  071%=      5-min Rain = 0
KTIS 191315Z 23007KT 03/M02 A2996 RMK A01 T00261023  RH  071%=      5-min Rain = 0
KTIS 191320Z 23007KT 03/M02 A2996 RMK A01 T00291023  RH  069%=      5-min Rain = 0
KTIS 191325Z 22007KT 03/M02 A2996 RMK A01 T00291023  RH  069%=      5-min Rain = 0
KTIS 191330Z 22006KT 03/M02 A2996 RMK A01 T00301022  RH  069%=      5-min Rain = 0
KTIS 191335Z 22005KT 03/M02 A2996 RMK A01 T00301023  RH  069%=      5-min Rain = 0
KTIS 191340Z 21005KT 03/M02 A2996 RMK A01 T00261024  RH  070%=      5-min Rain = 0
KTIS 191345Z 21005KT 03/M02 A2995 RMK A01 T00281023  RH  070%=      5-min Rain = 0
KTIS 191350Z 21005KT 03/M02 A2995 RMK A01 T00331022  RH  068%=      5-min Rain = 0
KTIS 191355Z 20005KT 04/M02 A2995 RMK A01 T00371019  RH  067%=      5-min Rain = 0
KTIS 191400Z 19005KT 04/M01 A2995 RMK A01 T00441014  RH  067%=      5-min Rain = 0
KTIS 191405Z 14003KT 04/M01 A2995 RMK A01 T00411008  RH  071%=      5-min Rain = 0
KTIS 191410Z 15004KT 04/M00 A2995 RMK A01 T00401003  RH  074%=      5-min Rain = 0
KTIS 191415Z 16004KT 05/00 A2995 RMK A01 T00490000  RH  071%=      5-min Rain = 0
KTIS 191420Z 17001KT 06/00 A2995 RMK A01 T00590003  RH  068%=      5-min Rain = 0
KTIS 191425Z 17001KT 06/M00 A2995 RMK A01 T00621001  RH  065%=      5-min Rain = 0
KTIS 191430Z 31001KT 07/00 A2996 RMK A01 T00650001  RH  065%=      5-min Rain = 0
KTIS 191435Z 32004KT 07/01 A2996 RMK A01 T00650007  RH  068%=      5-min Rain = 0
KTIS 191440Z 29002KT 06/01 A2996 RMK A01 T00640008  RH  068%=      5-min Rain = 0
KTIS 191445Z 25003KT 08/01 A2996 RMK A01 T00750008  RH  063%=      5-min Rain = 0
KTIS 191450Z 25004KT 09/01 A2996 RMK A01 T00910010  RH  057%=      5-min Rain = 0
KTIS 191455Z 22003KT 11/01 A2996 RMK A01 T01050014  RH  054%=      5-min Rain = 0
KTIS 191500Z 22005KT 12/01 A2996 RMK A01 T01220014  RH  049%=      5-min Rain = 0
KTIS 191505Z 22005KT 13/02 A2996 RMK A01 T01290015  RH  046%=      5-min Rain = 0
KTIS 191510Z 21005KT 13/01 A2996 RMK A01 T01340014  RH  045%=      5-min Rain = 0
KTIS 191515Z 20004KT 13/02 A2996 RMK A01 T01330015  RH  045%=      5-min Rain = 0
KTIS 191520Z 19005KT 13/02 A2996 RMK A01 T01340018  RH  046%=      5-min Rain = 0
KTIS 191525Z 19006KT 14/02 A2996 RMK A01 T01410016  RH  043%=      5-min Rain = 0
KTIS 191530Z 19007KT 14/02 A2996 RMK A01 T01440016  RH  042%=      5-min Rain = 0
KTIS 191535Z 18008KT 15/02 A2996 RMK A01 T01480015  RH  041%=      5-min Rain = 0
KTIS 191540Z 18007KT 15/02 A2996 RMK A01 T01530018  RH  041%=      5-min Rain = 0
KTIS 191545Z 18008KT 16/02 A2996 RMK A01 T01590017  RH  039%=      5-min Rain = 0
KTIS 191550Z 17009KT 17/02 A2996 RMK A01 T01650017  RH  037%=      5-min Rain = 0
KTIS 191555Z 18010KT 17/02 A2996 RMK A01 T01690015  RH  036%=      5-min Rain = 0
KTIS 191600Z 18010KT 17/02 A2996 RMK A01 T01740015  RH  035%=      5-min Rain = 0
KTIS 191605Z 18010KT 18/01 A2996 RMK A01 T01750013  RH  034%=      5-min Rain = 0
KTIS 191610Z 18011KT 18/01 A2996 RMK A01 T01790012  RH  033%=      5-min Rain = 0
KTIS 191615Z 18011KT 18/01 A2996 RMK A01 T01810009  RH  032%=      5-min Rain = 0
KTIS 191620Z 20011KT 18/01 A2996 RMK A01 T01790012  RH  033%=      5-min Rain = 0
KTIS 191625Z 19011KT 18/01 A2996 RMK A01 T01800011  RH  033%=      5-min Rain = 0
KTIS 191630Z 19010KT 18/01 A2996 RMK A01 T01810010  RH  032%=      5-min Rain = 0
KTIS 191635Z 19011KT 18/01 A2995 RMK A01 T01810011  RH  032%=      5-min Rain = 0
KTIS 191640Z 17011KT 19/01 A2995 RMK A01 T01880008  RH  030%=      5-min Rain = 0
KTIS 191645Z 18011KT 19/01 A2995 RMK A01 T01920007  RH  029%=      5-min Rain = 0
KTIS 191650Z 18010KT 19/01 A2995 RMK A01 T01890006  RH  030%=      5-min Rain = 0
KTIS 191655Z 18011KT 19/01 A2994 RMK A01 T01910006  RH  029%=      5-min Rain = 0
KTIS 191700Z 17015KT 19/00 A2994 RMK A01 T01870001  RH  029%=      5-min Rain = 0
KTIS 191705Z 17013KT 19/01 A2994 RMK A01 T01850005  RH  030%=      5-min Rain = 0
KTIS 191710Z 17014KT 19/01 A2994 RMK A01 T01940007  RH  029%=      5-min Rain = 0
KTIS 191715Z 17013KT 20/01 A2993 RMK A01 T01980007  RH  028%=      5-min Rain = 0
KTIS 191720Z 18012KT 21/01 A2993 RMK A01 T02060011  RH  028%=      5-min Rain = 0
KTIS 191725Z 17013KT 21/01 A2993 RMK A01 T02140010  RH  026%=      5-min Rain = 0
KTIS 191730Z 17015KT 21/01 A2992 RMK A01 T02140007  RH  026%=      5-min Rain = 0
KTIS 191735Z 17015KT 22/01 A2992 RMK A01 T02180005  RH  025%=      5-min Rain = 0
KTIS 191740Z 17016KT 22/00 A2991 RMK A01 T02190000  RH  024%=      5-min Rain = 0
KTIS 191745Z 18016KT 22/M01 A2991 RMK A01 T02191005  RH  023%=      5-min Rain = 0
KTIS 191750Z 18015KT 22/M00 A2991 RMK A01 T02201002  RH  023%=      5-min Rain = 0
KTIS 191755Z 18015KT 22/M00 A2991 RMK A01 T02201001  RH  023%=      5-min Rain = 0
KTIS 191800Z 19015KT 22/M00 A299 RMK A01 T02211001  RH  023%=      5-min Rain = 0
KTIS 191805Z 19016G21KT 23/00 A299 RMK A01 T02270000  RH  023%=      5-min Rain = 0
KTIS 191810Z 18014G19KT 23/00 A299 RMK A01 T02320003  RH  022%=      5-min Rain = 0
KTIS 191815Z 19014G19KT 23/00 A2989 RMK A01 T02320003  RH  022%=      5-min Rain = 0
KTIS 191820Z 20016G21KT 23/00 A2989 RMK A01 T02310003  RH  022%=      5-min Rain = 0
KTIS 191825Z 19017G22KT 23/M00 A2989 RMK A01 T02301001  RH  022%=      5-min Rain = 0
KTIS 191830Z 19016G22KT 23/00 A2989 RMK A01 T02320003  RH  022%=      5-min Rain = 0
KTIS 191835Z 19017KT 23/00 A2988 RMK A01 T02320002  RH  022%=      5-min Rain = 0
KTIS 191840Z 19018G23KT 24/00 A2988 RMK A01 T023500-0  RH  021%=      5-min Rain = 0
KTIS 191845Z 20018G25KT 23/M00 A2988 RMK A01 T02341001  RH  021%=      5-min Rain = 0
KTIS 191850Z 20019G24KT 24/M00 A2987 RMK A01 T02351001  RH  021%=      5-min Rain = 0
KTIS 191855Z 20017G23KT 24/M00 A2987 RMK A01 T02351001  RH  021%=      5-min Rain = 0
KTIS 191900Z 19017G22KT 24/M00 A2987 RMK A01 T02371002  RH  021%=      5-min Rain = 0
KTIS 191905Z 19017G24KT 24/M00 A2987 RMK A01 T02391002  RH  020%=      5-min Rain = 0
KTIS 191910Z 20018G23KT 24/M00 A2986 RMK A01 T02401002  RH  020%=      5-min Rain = 0
KTIS 191915Z 20018KT 24/M00 A2986 RMK A01 T02401001  RH  021%=      5-min Rain = 0
KTIS 191920Z 20020KT 24/M00 A2986 RMK A01 T02381003  RH  020%=      5-min Rain = 0
KTIS 191925Z 20018KT 24/M00 A2986 RMK A01 T02391001  RH  021%=      5-min Rain = 0
KTIS 191930Z 19019KT 24/M00 A2985 RMK A01 T02411002  RH  020%=      5-min Rain = 0
KTIS 191935Z 20019G27KT 24/M00 A2985 RMK A01 T02401002  RH  020%=      5-min Rain = 0
KTIS 191940Z 20019G25KT 24/M00 A2985 RMK A01 T02401004  RH  020%=      5-min Rain = 0
KTIS 191945Z 21019G24KT 24/M01 A2985 RMK A01 T02381007  RH  020%=      5-min Rain = 0
KTIS 191950Z 20019KT 23/M01 A2984 RMK A01 T02331007  RH  021%=      5-min Rain = 0
KTIS 191955Z 20019G25KT 24/M00 A2984 RMK A01 T02391002  RH  020%=      5-min Rain = 0
KTIS 192000Z 20020KT 24/M00 A2984 RMK A01 T02391003  RH  020%=      5-min Rain = 0
KTIS 192005Z 19019G24KT 24/00 A2984 RMK A01 T024200-0  RH  020%=      5-min Rain = 0
KTIS 192010Z 19017G23KT 24/M00 A2984 RMK A01 T02411001  RH  020%=      5-min Rain = 0
KTIS 192015Z 19019G24KT 24/M00 A2984 RMK A01 T02361002  RH  021%=      5-min Rain = 0
KTIS 192020Z 20018G25KT 24/00 A2983 RMK A01 T023800-0  RH  021%=      5-min Rain = 0
KTIS 192025Z 19019G24KT 24/M00 A2983 RMK A01 T02401002  RH  020%=      5-min Rain = 0
KTIS 192030Z 20017G25KT 24/M00 A2983 RMK A01 T02421002  RH  020%=      5-min Rain = 0
KTIS 192035Z 20020G26KT 24/M00 A2983 RMK A01 T02411003  RH  020%=      5-min Rain = 0
KTIS 192040Z 20018G25KT 24/M00 A2982 RMK A01 T02431002  RH  020%=      5-min Rain = 0
KTIS 192045Z 20018KT 24/M01 A2983 RMK A01 T02371006  RH  020%=      5-min Rain = 0
KTIS 192050Z 20017G24KT 24/M00 A2983 RMK A01 T02381003  RH  020%=      5-min Rain = 0
KTIS 192055Z 19021G27KT 24/M00 A2982 RMK A01 T02371004  RH  020%=      5-min Rain = 0
KTIS 192100Z 20019G25KT 24/M00 A2982 RMK A01 T02361004  RH  021%=      5-min Rain = 0
KTIS 192105Z 19020G25KT 24/M00 A2982 RMK A01 T02381003  RH  021%=      5-min Rain = 0
KTIS 192110Z 20018G23KT 24/M00 A2982 RMK A01 T02371004  RH  021%=      5-min Rain = 0
KTIS 192115Z 20018G23KT 24/M00 A2982 RMK A01 T02381004  RH  020%=      5-min Rain = 0
KTIS 192120Z 19016G21KT 24/M00 A2981 RMK A01 T02361004  RH  021%=      5-min Rain = 0
KTIS 192125Z 19018G23KT 24/M00 A2981 RMK A01 T02361003  RH  021%=      5-min Rain = 0
KTIS 192130Z 20018KT 24/M00 A2981 RMK A01 T02361003  RH  021%=      5-min Rain = 0
KTIS 192135Z 20017KT 23/M01 A2981 RMK A01 T02331005  RH  021%=      5-min Rain = 0
KTIS 192140Z 19015G20KT 23/M00 A2981 RMK A01 T02321004  RH  021%=      5-min Rain = 0
KTIS 192145Z 19016KT 23/M01 A2981 RMK A01 T02341006  RH  021%=      5-min Rain = 0
KTIS 192150Z 18016G21KT 23/M01 A298 RMK A01 T02321006  RH  021%=      5-min Rain = 0
KTIS 192155Z 19015KT 24/M01 A298 RMK A01 T02371006  RH  020%=      5-min Rain = 0
KTIS 192200Z 19016KT 24/M01 A298 RMK A01 T02391006  RH  020%=      5-min Rain = 0
KTIS 192205Z 19017G23KT 24/M01 A298 RMK A01 T02391007  RH  020%=      5-min Rain = 0
KTIS 192210Z 19019KT 24/M01 A298 RMK A01 T02381008  RH  020%=      5-min Rain = 0
KTIS 192215Z 19017G22KT 24/M01 A298 RMK A01 T02361005  RH  020%=      5-min Rain = 0
KTIS 192220Z 19017G22KT 23/M01 A298 RMK A01 T02321006  RH  021%=      5-min Rain = 0
KTIS 192225Z 19018G24KT 23/M01 A298 RMK A01 T02321009  RH  020%=      5-min Rain = 0
KTIS 192230Z 19016KT 23/M01 A298 RMK A01 T02311007  RH  021%=      5-min Rain = 0
KTIS 192235Z 19016KT 23/M01 A298 RMK A01 T02301007  RH  021%=      5-min Rain = 0
KTIS 192240Z 18014KT 23/M01 A298 RMK A01 T02291006  RH  021%=      5-min Rain = 0
KTIS 192245Z 18015KT 23/M01 A298 RMK A01 T02271007  RH  021%=      5-min Rain = 0
KTIS 192250Z 19013G18KT 23/M01 A298 RMK A01 T02261006  RH  022%=      5-min Rain = 0
KTIS 192255Z 18011KT 22/M01 A298 RMK A01 T02221005  RH  022%=      5-min Rain = 0
KTIS 192300Z 18012KT 22/M01 A298 RMK A01 T02171006  RH  023%=      5-min Rain = 0
KTIS 192305Z 18011KT 21/M01 A298 RMK A01 T02111006  RH  024%=      5-min Rain = 0
KTIS 192310Z 17011KT 21/M01 A298 RMK A01 T02071005  RH  025%=      5-min Rain = 0
KTIS 192315Z 18011KT 20/M00 A298 RMK A01 T02031004  RH  025%=      5-min Rain = 0
KTIS 192320Z 18012KT 20/M01 A298 RMK A01 T02001006  RH  025%=      5-min Rain = 0
KTIS 192325Z 18012KT 20/M01 A298 RMK A01 T01981006  RH  026%=      5-min Rain = 0
KTIS 192330Z 18012KT 19/M01 A298 RMK A01 T01941007  RH  026%=      5-min Rain = 0
KTIS 192335Z 18013KT 19/M01 A298 RMK A01 T01931008  RH  026%=      5-min Rain = 0
KTIS 192340Z 18012KT 19/M01 A298 RMK A01 T01901008  RH  027%=      5-min Rain = 0
KTIS 192345Z 18011KT 19/M01 A298 RMK A01 T01851008  RH  027%=      5-min Rain = 0
KTIS 192350Z 18011KT 18/M01 A298 RMK A01 T01801008  RH  028%=      5-min Rain = 0
KTIS 192355Z 18010KT 18/M01 A298 RMK A01 T01761008  RH  029%=      5-min Rain = 0
KTIS 200000Z 17010KT 17/M01 A298 RMK A01 T01731009  RH  029%=      5-min Rain = 0
KTIS 200005Z 17010KT 17/M01 A2981 RMK A01 T01691008  RH  030%=      5-min Rain = 0
KTIS 200010Z 16011KT 17/M01 A2981 RMK A01 T01661008  RH  031%=      5-min Rain = 0
KTIS 200015Z 16009KT 16/M01 A2981 RMK A01 T01601007  RH  032%=      5-min Rain = 0
KTIS 200020Z 16009KT 15/M01 A2981 RMK A01 T01531006  RH  034%=      5-min Rain = 0
KTIS 200025Z 16010KT 15/M00 A2981 RMK A01 T01521004  RH  035%=      5-min Rain = 0
KTIS 200030Z 16010KT 15/M00 A2981 RMK A01 T01501003  RH  035%=      5-min Rain = 0
KTIS 200035Z 16010KT 15/M00 A2981 RMK A01 T01481002  RH  036%=      5-min Rain = 0
KTIS 200040Z 16010KT 15/M00 A2981 RMK A01 T01461001  RH  037%=      5-min Rain = 0
KTIS 200045Z 16011KT 15/00 A298 RMK A01 T014600-0  RH  037%=      5-min Rain = 0
KTIS 200050Z 16011KT 14/00 A2981 RMK A01 T01440001  RH  038%=      5-min Rain = 0
KTIS 200055Z 17011KT 15/00 A2981 RMK A01 T01450002  RH  038%=      5-min Rain = 0
KTIS 200100Z 17010KT 15/00 A2981 RMK A01 T01450002  RH  038%=      5-min Rain = 0
KTIS 200105Z 17009KT 14/00 A2981 RMK A01 T01430004  RH  039%=      5-min Rain = 0
KTIS 200110Z 17010KT 14/01 A298 RMK A01 T01410005  RH  040%=      5-min Rain = 0
KTIS 200115Z 17009KT 14/01 A298 RMK A01 T01400005  RH  040%=      5-min Rain = 0
KTIS 200120Z 17009KT 14/01 A298 RMK A01 T01400005  RH  040%=      5-min Rain = 0
KTIS 200125Z 17009KT 14/01 A2981 RMK A01 T01380006  RH  041%=      5-min Rain = 0
KTIS 200130Z 16009KT 14/01 A2981 RMK A01 T01360007  RH  042%=      5-min Rain = 0
KTIS 200135Z 16008KT 13/01 A2981 RMK A01 T01300007  RH  044%=      5-min Rain = 0
KTIS 200140Z 17008KT 13/01 A2981 RMK A01 T01270007  RH  045%=      5-min Rain = 0
KTIS 200145Z 17008KT 13/01 A2981 RMK A01 T01270007  RH  044%=      5-min Rain = 0
KTIS 200150Z 17009KT 13/01 A2981 RMK A01 T01260006  RH  044%=      5-min Rain = 0
KTIS 200155Z 17009KT 12/01 A2981 RMK A01 T01230005  RH  045%=      5-min Rain = 0
KTIS 200200Z 17009KT 12/00 A298 RMK A01 T01210004  RH  045%=      5-min Rain = 0
KTIS 200205Z 18010KT 12/00 A2981 RMK A01 T01210003  RH  045%=      5-min Rain = 0
KTIS 200210Z 18011KT 12/00 A2981 RMK A01 T01190003  RH  045%=      5-min Rain = 0
KTIS 200215Z 17010KT 12/00 A2981 RMK A01 T01190004  RH  046%=      5-min Rain = 0
KTIS 200220Z 17009KT 12/01 A2981 RMK A01 T01200005  RH  046%=      5-min Rain = 0
KTIS 200225Z 17009KT 12/01 A2981 RMK A01 T01190005  RH  046%=      5-min Rain = 0
KTIS 200230Z 17009KT 12/01 A2981 RMK A01 T01190005  RH  046%=      5-min Rain = 0
KTIS 200235Z 18009KT 12/01 A2981 RMK A01 T01180005  RH  046%=      5-min Rain = 0
KTIS 200240Z 18011KT 12/01 A2981 RMK A01 T01210006  RH  046%=      5-min Rain = 0
KTIS 200245Z 18012KT 13/01 A2981 RMK A01 T01300008  RH  044%=      5-min Rain = 0
KTIS 200250Z 18013KT 13/01 A2981 RMK A01 T01340009  RH  043%=      5-min Rain = 0
KTIS 200255Z 18014KT 14/01 A2981 RMK A01 T01400011  RH  042%=      5-min Rain = 0
KTIS 200300Z 18012KT 14/01 A2981 RMK A01 T01390011  RH  042%=      5-min Rain = 0
KTIS 200305Z 18011KT 14/01 A2981 RMK A01 T01350010  RH  043%=      5-min Rain = 0
KTIS 200310Z 18011KT 13/01 A2981 RMK A01 T01310010  RH  044%=      5-min Rain = 0
KTIS 200315Z 18011KT 13/01 A2981 RMK A01 T01300010  RH  044%=      5-min Rain = 0
KTIS 200320Z 18012KT 13/01 A2981 RMK A01 T01300010  RH  044%=      5-min Rain = 0
KTIS 200325Z 18012KT 13/01 A2981 RMK A01 T01280009  RH  045%=      5-min Rain = 0
KTIS 200330Z 18011KT 13/01 A2981 RMK A01 T01280009  RH  045%=      5-min Rain = 0
KTIS 200335Z 18012KT 13/01 A2981 RMK A01 T01300010  RH  045%=      5-min Rain = 0
KTIS 200340Z 18011KT 13/01 A2981 RMK A01 T01290010  RH  045%=      5-min Rain = 0
KTIS 200345Z 19011KT 13/01 A2981 RMK A01 T01280011  RH  045%=      5-min Rain = 0
KTIS 200350Z 18011KT 13/01 A2981 RMK A01 T01320011  RH  044%=      5-min Rain = 0
KTIS 200355Z 18012KT 14/01 A2981 RMK A01 T01350011  RH  043%=      5-min Rain = 0
KTIS 200400Z 18012KT 14/01 A2981 RMK A01 T01360011  RH  043%=      5-min Rain = 0
KTIS 200405Z 18013KT 14/01 A2981 RMK A01 T01360011  RH  043%=      5-min Rain = 0
KTIS 200410Z 18013KT 13/01 A2981 RMK A01 T01340011  RH  044%=      5-min Rain = 0
KTIS 200415Z 18012KT 13/01 A2981 RMK A01 T01320011  RH  044%=      5-min Rain = 0
KTIS 200420Z 18011KT 13/01 A2981 RMK A01 T01310011  RH  044%=      5-min Rain = 0
KTIS 200425Z 18010KT 13/01 A2981 RMK A01 T01280011  RH  045%=      5-min Rain = 0
KTIS 200430Z 19010KT 13/01 A2981 RMK A01 T01270011  RH  046%=      5-min Rain = 0
KTIS 200435Z 19010KT 13/01 A2981 RMK A01 T01280010  RH  045%=      5-min Rain = 0
KTIS 200440Z 19009KT 13/01 A2981 RMK A01 T01270009  RH  045%=      5-min Rain = 0
KTIS 200445Z 19009KT 13/01 A2981 RMK A01 T01260009  RH  045%=      5-min Rain = 0
KTIS 200450Z 19010KT 13/01 A2981 RMK A01 T01260009  RH  046%=      5-min Rain = 0
KTIS 200455Z 19009KT 13/01 A2981 RMK A01 T01250009  RH  046%=      5-min Rain = 0
KTIS 200500Z 19010KT 12/01 A2981 RMK A01 T01240008  RH  046%=      5-min Rain = 0
KTIS 200505Z 18009KT 13/01 A2981 RMK A01 T01250006  RH  045%=      5-min Rain = 0
KTIS 200510Z 18008KT 12/01 A2981 RMK A01 T01230005  RH  045%=      5-min Rain = 0
KTIS 200515Z 19008KT 12/00 A2981 RMK A01 T01230004  RH  045%=      5-min Rain = 0
KTIS 200520Z 20009KT 12/01 A2981 RMK A01 T01240005  RH  045%=      5-min Rain = 0
KTIS 200525Z 20010KT 13/01 A2981 RMK A01 T01260007  RH  044%=      5-min Rain = 0
KTIS 200530Z 19012KT 13/01 A2981 RMK A01 T01280008  RH  044%=      5-min Rain = 0
KTIS 200535Z 19012KT 13/01 A2981 RMK A01 T01310010  RH  044%=      5-min Rain = 0
KTIS 200540Z 19014KT 13/01 A298 RMK A01 T01340014  RH  045%=      5-min Rain = 0
KTIS 200545Z 19014G19KT 14/02 A298 RMK A01 T01370019  RH  045%=      5-min Rain = 0
KTIS 200550Z 19016KT 14/02 A298 RMK A01 T01400023  RH  046%=      5-min Rain = 0
KTIS 200555Z 20017KT 14/03 A298 RMK A01 T01410027  RH  047%=      5-min Rain = 0

Page generated in 0.0125 seconds.